Terminal Aerodrome Forecast
Issued by NWS

Home | Current Version | Previous Version | Text Only | Print | Product List | Glossary On
Versions: 1 2 3 4 5 6 7 8 9 10 11 12 13 14 15 16 17
000
FTUS45 KGJT 300534
TAFASE
TAF
KASE 300534Z 3006/3106 18004KT P6SM FEW100
     FM301400 00000KT P6SM SCT250
     FM301900 34006KT P6SM BKN100
     FM302100 34007KT P6SM VCTS BKN100CB
     FM310300 19007KT P6SM SCT150=

USA.gov is the U.S. government's official web portal to all federal, state and local government web resources and services.